sensor_id;sensor_type;location;lat;lon;timestamp;temperature;humidity
1165;DHT22;571;50.930;6.926;2023-09-30T00:01:18;15.90;99.90
1165;DHT22;571;50.930;6.926;2023-09-30T00:03:58;15.90;99.90
1165;DHT22;571;50.930;6.926;2023-09-30T00:06:42;15.80;99.90
1165;DHT22;571;50.930;6.926;2023-09-30T00:09:22;15.80;99.90
1165;DHT22;571;50.930;6.926;2023-09-30T00:12:03;15.80;99.90
1165;DHT22;571;50.930;6.926;2023-09-30T00:14:47;15.60;99.90
1165;DHT22;571;50.930;6.926;2023-09-30T00:17:55;15.70;99.90
1165;DHT22;571;50.930;6.926;2023-09-30T00:20:53;15.70;99.90
1165;DHT22;571;50.930;6.926;2023-09-30T00:23:38;15.80;99.90
1165;DHT22;571;50.930;6.926;2023-09-30T00:26:18;15.70;99.90
1165;DHT22;571;50.930;6.926;2023-09-30T00:28:58;15.60;99.90
1165;DHT22;571;50.930;6.926;2023-09-30T00:31:38;15.60;99.90
1165;DHT22;571;50.930;6.926;2023-09-30T00:34:17;15.70;99.90
1165;DHT22;571;50.930;6.926;2023-09-30T00:36:49;15.60;99.90
1165;DHT22;571;50.930;6.926;2023-09-30T00:39:25;15.60;99.90
1165;DHT22;571;50.930;6.926;2023-09-30T00:41:59;15.60;99.90
1165;DHT22;571;50.930;6.926;2023-09-30T00:44:44;15.70;99.90
1165;DHT22;571;50.930;6.926;2023-09-30T00:47:20;15.60;99.90
1165;DHT22;571;50.930;6.926;2023-09-30T00:50:10;15.70;99.90
1165;DHT22;571;50.930;6.926;2023-09-30T00:52:49;15.50;99.90
1165;DHT22;571;50.930;6.926;2023-09-30T00:55:28;15.60;99.90
1165;DHT22;571;50.930;6.926;2023-09-30T00:58:05;15.50;99.90
1165;DHT22;571;50.930;6.926;2023-09-30T01:01:11;15.50;99.90
1165;DHT22;571;50.930;6.926;2023-09-30T01:03:38;15.50;99.90
1165;DHT22;571;50.930;6.926;2023-09-30T01:06:06;15.50;99.90
1165;DHT22;571;50.930;6.926;2023-09-30T01:08:33;15.50;99.90
1165;DHT22;571;50.930;6.926;2023-09-30T01:11:00;15.50;99.90
1165;DHT22;571;50.930;6.926;2023-09-30T01:13:32;15.50;99.90
1165;DHT22;571;50.930;6.926;2023-09-30T01:16:03;15.40;99.90
1165;DHT22;571;50.930;6.926;2023-09-30T01:18:30;15.50;99.90
1165;DHT22;571;50.930;6.926;2023-09-30T01:20:57;15.50;99.90
1165;DHT22;571;50.930;6.926;2023-09-30T01:23:26;15.40;99.90
1165;DHT22;571;50.930;6.926;2023-09-30T01:25:53;15.50;99.90
1165;DHT22;571;50.930;6.926;2023-09-30T01:28:20;15.40;99.90
1165;DHT22;571;50.930;6.926;2023-09-30T01:30:47;15.40;99.90
1165;DHT22;571;50.930;6.926;2023-09-30T01:33:13;15.40;99.90
1165;DHT22;571;50.930;6.926;2023-09-30T01:35:42;15.30;99.90
1165;DHT22;571;50.930;6.926;2023-09-30T01:38:08;15.30;99.90
1165;DHT22;571;50.930;6.926;2023-09-30T01:40:36;15.30;99.90
1165;DHT22;571;50.930;6.926;2023-09-30T01:43:03;15.30;99.90
1165;DHT22;571;50.930;6.926;2023-09-30T01:45:30;15.40;99.90
1165;DHT22;571;50.930;6.926;2023-09-30T01:47:57;15.40;99.90
1165;DHT22;571;50.930;6.926;2023-09-30T01:50:24;15.30;99.90
1165;DHT22;571;50.930;6.926;2023-09-30T01:52:51;15.30;99.90
1165;DHT22;571;50.930;6.926;2023-09-30T01:55:18;15.30;99.90
1165;DHT22;571;50.930;6.926;2023-09-30T01:57:46;15.30;99.90
1165;DHT22;571;50.930;6.926;2023-09-30T02:00:13;15.20;99.90
1165;DHT22;571;50.930;6.926;2023-09-30T02:02:39;15.30;99.90
1165;DHT22;571;50.930;6.926;2023-09-30T02:05:08;15.30;99.90
1165;DHT22;571;50.930;6.926;2023-09-30T02:07:35;15.30;99.90
1165;DHT22;571;50.930;6.926;2023-09-30T02:10:03;15.30;99.90
1165;DHT22;571;50.930;6.926;2023-09-30T02:12:29;15.30;99.90
1165;DHT22;571;50.930;6.926;2023-09-30T02:18:31;15.30;99.90
1165;DHT22;571;50.930;6.926;2023-09-30T02:37:56;15.20;99.90
1165;DHT22;571;50.930;6.926;2023-09-30T02:44:37;15.10;99.90
1165;DHT22;571;50.930;6.926;2023-09-30T02:51:10;15.10;99.90
1165;DHT22;571;50.930;6.926;2023-09-30T02:57:28;15.00;99.90
1165;DHT22;571;50.930;6.926;2023-09-30T03:00:15;15.00;99.90
1165;DHT22;571;50.930;6.926;2023-09-30T03:03:21;15.00;99.90
1165;DHT22;571;50.930;6.926;2023-09-30T03:06:21;14.90;99.90
1165;DHT22;571;50.930;6.926;2023-09-30T03:09:04;14.90;99.90
1165;DHT22;571;50.930;6.926;2023-09-30T03:12:11;14.90;99.90
1165;DHT22;571;50.930;6.926;2023-09-30T03:15:02;14.90;99.90
1165;DHT22;571;50.930;6.926;2023-09-30T03:17:47;15.00;99.90
1165;DHT22;571;50.930;6.926;2023-09-30T03:20:24;14.90;99.90
1165;DHT22;571;50.930;6.926;2023-09-30T03:40:22;14.60;99.90
1165;DHT22;571;50.930;6.926;2023-09-30T03:43:08;14.70;99.90
1165;DHT22;571;50.930;6.926;2023-09-30T03:45:54;14.70;99.90
1165;DHT22;571;50.930;6.926;2023-09-30T03:48:37;14.70;99.90
1165;DHT22;571;50.930;6.926;2023-09-30T03:51:12;14.70;99.90
1165;DHT22;571;50.930;6.926;2023-09-30T03:57:27;14.60;99.90
1165;DHT22;571;50.930;6.926;2023-09-30T04:00:29;14.60;99.90
1165;DHT22;571;50.930;6.926;2023-09-30T04:03:16;14.60;99.90
1165;DHT22;571;50.930;6.926;2023-09-30T04:06:15;14.60;99.90
1165;DHT22;571;50.930;6.926;2023-09-30T04:09:24;14.60;99.90
1165;DHT22;571;50.930;6.926;2023-09-30T04:11:59;14.50;99.90
1165;DHT22;571;50.930;6.926;2023-09-30T04:15:02;14.50;99.90
1165;DHT22;571;50.930;6.926;2023-09-30T04:17:47;14.50;99.90
1165;DHT22;571;50.930;6.926;2023-09-30T04:20:34;14.50;99.90
1165;DHT22;571;50.930;6.926;2023-09-30T04:23:27;14.50;99.90
1165;DHT22;571;50.930;6.926;2023-09-30T04:28:55;14.40;99.90
1165;DHT22;571;50.930;6.926;2023-09-30T04:31:38;14.40;99.90
1165;DHT22;571;50.930;6.926;2023-09-30T04:34:23;14.30;99.90
1165;DHT22;571;50.930;6.926;2023-09-30T04:41:05;14.30;99.90
1165;DHT22;571;50.930;6.926;2023-09-30T04:43:58;14.30;99.90
1165;DHT22;571;50.930;6.926;2023-09-30T04:50:26;14.30;99.90
1165;DHT22;571;50.930;6.926;2023-09-30T04:53:00;14.30;99.90
1165;DHT22;571;50.930;6.926;2023-09-30T04:55:50;14.30;99.90
1165;DHT22;571;50.930;6.926;2023-09-30T04:58:47;14.30;99.90
1165;DHT22;571;50.930;6.926;2023-09-30T05:01:23;14.20;99.90
1165;DHT22;571;50.930;6.926;2023-09-30T05:03:53;14.20;99.90
1165;DHT22;571;50.930;6.926;2023-09-30T05:10:40;14.10;99.90
1165;DHT22;571;50.930;6.926;2023-09-30T05:13:18;14.10;99.90
1165;DHT22;571;50.930;6.926;2023-09-30T05:16:38;14.00;99.90
1165;DHT22;571;50.930;6.926;2023-09-30T05:27:59;14.10;99.90
1165;DHT22;571;50.930;6.926;2023-09-30T05:30:40;14.10;99.90
1165;DHT22;571;50.930;6.926;2023-09-30T05:36:49;14.20;99.90
1165;DHT22;571;50.930;6.926;2023-09-30T05:43:12;14.00;99.90
1165;DHT22;571;50.930;6.926;2023-09-30T05:46:25;14.10;99.90
1165;DHT22;571;50.930;6.926;2023-09-30T05:52:48;14.00;99.90
1165;DHT22;571;50.930;6.926;2023-09-30T06:03:08;14.00;99.90
1165;DHT22;571;50.930;6.926;2023-09-30T06:49:09;14.40;99.90
1165;DHT22;571;50.930;6.926;2023-09-30T06:59:45;14.50;99.90
1165;DHT22;571;50.930;6.926;2023-09-30T07:02:41;14.60;99.90
1165;DHT22;571;50.930;6.926;2023-09-30T07:09:38;14.70;99.90
1165;DHT22;571;50.930;6.926;2023-09-30T08:06:36;15.50;99.90
1165;DHT22;571;50.930;6.926;2023-09-30T08:09:30;15.60;99.90
1165;DHT22;571;50.930;6.926;2023-09-30T08:12:04;15.60;99.90
1165;DHT22;571;50.930;6.926;2023-09-30T08:14:42;15.70;99.90
1165;DHT22;571;50.930;6.926;2023-09-30T08:20:42;15.80;99.90
1165;DHT22;571;50.930;6.926;2023-09-30T08:23:23;15.90;99.90
1165;DHT22;571;50.930;6.926;2023-09-30T08:26:06;15.90;99.90
1165;DHT22;571;50.930;6.926;2023-09-30T08:28:46;16.00;99.90
1165;DHT22;571;50.930;6.926;2023-09-30T08:31:26;16.00;99.90
1165;DHT22;571;50.930;6.926;2023-09-30T08:34:13;16.20;99.90
1165;DHT22;571;50.930;6.926;2023-09-30T08:36:43;16.10;99.90
1165;DHT22;571;50.930;6.926;2023-09-30T08:39:37;16.30;99.90
1165;DHT22;571;50.930;6.926;2023-09-30T08:42:11;16.30;99.90
1165;DHT22;571;50.930;6.926;2023-09-30T08:44:44;16.40;99.90
1165;DHT22;571;50.930;6.926;2023-09-30T08:50:11;16.50;99.90
1165;DHT22;571;50.930;6.926;2023-09-30T08:55:56;16.40;99.90
1165;DHT22;571;50.930;6.926;2023-09-30T08:58:55;16.60;99.90
1165;DHT22;571;50.930;6.926;2023-09-30T09:09:26;16.70;99.90
1165;DHT22;571;50.930;6.926;2023-09-30T09:29:33;17.20;99.90
1165;DHT22;571;50.930;6.926;2023-09-30T09:32:22;17.40;99.90
1165;DHT22;571;50.930;6.926;2023-09-30T09:35:23;17.50;99.90
1165;DHT22;571;50.930;6.926;2023-09-30T09:37:55;17.40;99.90
1165;DHT22;571;50.930;6.926;2023-09-30T09:40:48;17.50;99.90
1165;DHT22;571;50.930;6.926;2023-09-30T09:43:37;17.50;99.90
1165;DHT22;571;50.930;6.926;2023-09-30T09:46:11;17.60;99.90
1165;DHT22;571;50.930;6.926;2023-09-30T09:48:54;17.70;99.90
1165;DHT22;571;50.930;6.926;2023-09-30T09:51:32;17.80;99.90
1165;DHT22;571;50.930;6.926;2023-09-30T11:46:15;22.40;90.40
1165;DHT22;571;50.930;6.926;2023-09-30T11:52:50;22.80;88.70
1165;DHT22;571;50.930;6.926;2023-09-30T12:03:09;22.30;84.40
1165;DHT22;571;50.930;6.926;2023-09-30T12:13:38;22.40;87.50
1165;DHT22;571;50.930;6.926;2023-09-30T12:24:03;23.70;82.80
1165;DHT22;571;50.930;6.926;2023-09-30T12:27:07;24.00;82.50
1165;DHT22;571;50.930;6.926;2023-09-30T12:29:38;24.20;80.20
1165;DHT22;571;50.930;6.926;2023-09-30T12:32:06;24.50;80.80
1165;DHT22;571;50.930;6.926;2023-09-30T12:34:33;24.60;80.00
1165;DHT22;571;50.930;6.926;2023-09-30T12:37:01;24.70;79.60
1165;DHT22;571;50.930;6.926;2023-09-30T12:39:30;24.60;80.20
1165;DHT22;571;50.930;6.926;2023-09-30T12:41:58;24.70;77.70
1165;DHT22;571;50.930;6.926;2023-09-30T12:44:25;24.80;75.90
1165;DHT22;571;50.930;6.926;2023-09-30T12:46:52;24.60;75.50
1165;DHT22;571;50.930;6.926;2023-09-30T12:49:45;24.70;76.60
1165;DHT22;571;50.930;6.926;2023-09-30T12:52:34;24.70;75.40
1165;DHT22;571;50.930;6.926;2023-09-30T12:59:07;24.60;78.00
1165;DHT22;571;50.930;6.926;2023-09-30T13:19:51;24.10;74.80
1165;DHT22;571;50.930;6.926;2023-09-30T13:22:42;24.00;73.30
1165;DHT22;571;50.930;6.926;2023-09-30T13:25:38;24.00;74.40
1165;DHT22;571;50.930;6.926;2023-09-30T13:28:37;24.00;76.30
1165;DHT22;571;50.930;6.926;2023-09-30T13:32:16;23.90;71.40
1165;DHT22;571;50.930;6.926;2023-09-30T13:36:18;23.80;72.30
1165;DHT22;571;50.930;6.926;2023-09-30T13:38:29;23.70;75.90
1165;DHT22;571;50.930;6.926;2023-09-30T13:54:14;23.60;71.20
1165;DHT22;571;50.930;6.926;2023-09-30T13:59:40;23.50;71.60
1165;DHT22;571;50.930;6.926;2023-09-30T14:02:26;23.40;68.90
1165;DHT22;571;50.930;6.926;2023-09-30T14:05:15;23.30;70.70
1165;DHT22;571;50.930;6.926;2023-09-30T14:08:02;23.20;70.10
1165;DHT22;571;50.930;6.926;2023-09-30T14:10:46;23.10;71.60
1165;DHT22;571;50.930;6.926;2023-09-30T14:17:06;23.00;75.30
1165;DHT22;571;50.930;6.926;2023-09-30T14:20:33;22.90;74.10
1165;DHT22;571;50.930;6.926;2023-09-30T14:23:07;22.90;73.10
1165;DHT22;571;50.930;6.926;2023-09-30T14:29:14;23.10;73.60
1165;DHT22;571;50.930;6.926;2023-09-30T15:19:02;22.50;77.50
1165;DHT22;571;50.930;6.926;2023-09-30T15:21:40;22.40;76.90
1165;DHT22;571;50.930;6.926;2023-09-30T15:24:11;22.30;77.10
1165;DHT22;571;50.930;6.926;2023-09-30T15:26:47;22.30;78.40
1165;DHT22;571;50.930;6.926;2023-09-30T15:29:58;22.20;77.50
1165;DHT22;571;50.930;6.926;2023-09-30T15:32:28;22.20;77.30
1165;DHT22;571;50.930;6.926;2023-09-30T15:35:05;22.10;79.60
1165;DHT22;571;50.930;6.926;2023-09-30T15:37:59;22.10;79.40
1165;DHT22;571;50.930;6.926;2023-09-30T15:44:16;22.00;77.90
1165;DHT22;571;50.930;6.926;2023-09-30T15:50:31;21.90;78.90
1165;DHT22;571;50.930;6.926;2023-09-30T15:53:44;21.80;79.40
1165;DHT22;571;50.930;6.926;2023-09-30T15:56:50;21.80;78.80
1165;DHT22;571;50.930;6.926;2023-09-30T16:02:56;21.60;80.00
1165;DHT22;571;50.930;6.926;2023-09-30T16:23:24;21.20;84.50
1165;DHT22;571;50.930;6.926;2023-09-30T16:26:32;21.20;84.60
1165;DHT22;571;50.930;6.926;2023-09-30T16:29:39;21.10;85.00
1165;DHT22;571;50.930;6.926;2023-09-30T16:36:07;20.90;86.20
1165;DHT22;571;50.930;6.926;2023-09-30T16:39:02;20.80;87.00
1165;DHT22;571;50.930;6.926;2023-09-30T16:41:55;20.80;87.30
1165;DHT22;571;50.930;6.926;2023-09-30T16:44:42;20.70;87.70
1165;DHT22;571;50.930;6.926;2023-09-30T16:47:16;20.60;88.20
1165;DHT22;571;50.930;6.926;2023-09-30T16:49:43;20.60;88.90
1165;DHT22;571;50.930;6.926;2023-09-30T16:52:15;20.40;88.60
1165;DHT22;571;50.930;6.926;2023-09-30T16:55:02;20.40;89.00
1165;DHT22;571;50.930;6.926;2023-09-30T17:04:23;20.20;89.80
1165;DHT22;571;50.930;6.926;2023-09-30T17:07:17;20.10;90.00
1165;DHT22;571;50.930;6.926;2023-09-30T17:10:26;20.00;90.10
1165;DHT22;571;50.930;6.926;2023-09-30T17:16:24;19.90;90.70
1165;DHT22;571;50.930;6.926;2023-09-30T17:26:04;19.70;91.10
1165;DHT22;571;50.930;6.926;2023-09-30T17:28:59;19.60;91.40
1165;DHT22;571;50.930;6.926;2023-09-30T17:54:41;18.90;93.30
1165;DHT22;571;50.930;6.926;2023-09-30T17:58:11;18.90;93.40
1165;DHT22;571;50.930;6.926;2023-09-30T18:01:44;18.80;93.50
1165;DHT22;571;50.930;6.926;2023-09-30T19:24:30;17.60;96.70
1165;DHT22;571;50.930;6.926;2023-09-30T19:27:32;17.50;96.90
1165;DHT22;571;50.930;6.926;2023-09-30T19:30:49;17.50;97.30
1165;DHT22;571;50.930;6.926;2023-09-30T19:37:33;17.40;97.10
1165;DHT22;571;50.930;6.926;2023-09-30T20:07:29;17.30;98.10
1165;DHT22;571;50.930;6.926;2023-09-30T20:13:54;17.20;98.10
1165;DHT22;571;50.930;6.926;2023-09-30T20:18:33;17.20;98.20
1165;DHT22;571;50.930;6.926;2023-09-30T20:54:00;16.90;98.70
1165;DHT22;571;50.930;6.926;2023-09-30T20:57:22;16.90;98.90
1165;DHT22;571;50.930;6.926;2023-09-30T21:10:43;16.80;99.10
1165;DHT22;571;50.930;6.926;2023-09-30T21:18:10;16.70;99.00
1165;DHT22;571;50.930;6.926;2023-09-30T21:21:02;16.70;99.00
1165;DHT22;571;50.930;6.926;2023-09-30T21:33:49;16.50;99.00
1165;DHT22;571;50.930;6.926;2023-09-30T21:43:31;16.40;99.10
1165;DHT22;571;50.930;6.926;2023-09-30T21:49:11;16.50;99.30
1165;DHT22;571;50.930;6.926;2023-09-30T21:51:43;16.30;99.40
1165;DHT22;571;50.930;6.926;2023-09-30T21:54:26;16.20;99.30
